sensor_id;sensor_type;location;lat;lon;timestamp;P1;durP1;ratioP1;P2;durP2;ratioP2
801;SDS011;383;48.766;9.270;2022-12-07T00:01:18;13.07;;;7.07;;
801;SDS011;383;48.766;9.270;2022-12-07T00:03:47;12.02;;;6.40;;
801;SDS011;383;48.766;9.270;2022-12-07T00:06:15;12.80;;;7.40;;
801;SDS011;383;48.766;9.270;2022-12-07T00:08:43;12.48;;;6.90;;
801;SDS011;383;48.766;9.270;2022-12-07T00:11:12;12.23;;;7.22;;
801;SDS011;383;48.766;9.270;2022-12-07T00:13:41;15.73;;;7.63;;
801;SDS011;383;48.766;9.270;2022-12-07T00:16:09;11.93;;;6.80;;
801;SDS011;383;48.766;9.270;2022-12-07T00:18:38;12.98;;;6.35;;
801;SDS011;383;48.766;9.270;2022-12-07T00:21:05;14.77;;;7.85;;
801;SDS011;383;48.766;9.270;2022-12-07T00:23:34;11.82;;;6.70;;
801;SDS011;383;48.766;9.270;2022-12-07T00:26:05;14.40;;;8.13;;
801;SDS011;383;48.766;9.270;2022-12-07T00:28:34;14.27;;;6.93;;
801;SDS011;383;48.766;9.270;2022-12-07T00:31:02;15.80;;;7.90;;
801;SDS011;383;48.766;9.270;2022-12-07T00:33:30;17.48;;;7.53;;
801;SDS011;383;48.766;9.270;2022-12-07T00:35:58;11.95;;;7.07;;
801;SDS011;383;48.766;9.270;2022-12-07T00:38:27;13.27;;;7.38;;
801;SDS011;383;48.766;9.270;2022-12-07T00:40:58;12.98;;;6.63;;
801;SDS011;383;48.766;9.270;2022-12-07T00:43:26;16.67;;;8.77;;
801;SDS011;383;48.766;9.270;2022-12-07T00:45:54;11.30;;;7.43;;
801;SDS011;383;48.766;9.270;2022-12-07T00:48:21;12.63;;;6.43;;
801;SDS011;383;48.766;9.270;2022-12-07T00:50:49;11.60;;;7.30;;
801;SDS011;383;48.766;9.270;2022-12-07T00:53:16;14.18;;;7.28;;
801;SDS011;383;48.766;9.270;2022-12-07T00:55:43;12.68;;;7.15;;
801;SDS011;383;48.766;9.270;2022-12-07T00:58:10;19.77;;;8.63;;
801;SDS011;383;48.766;9.270;2022-12-07T01:00:38;18.42;;;7.65;;
801;SDS011;383;48.766;9.270;2022-12-07T01:03:08;15.48;;;8.20;;
801;SDS011;383;48.766;9.270;2022-12-07T01:05:36;19.35;;;8.68;;
801;SDS011;383;48.766;9.270;2022-12-07T01:08:03;16.20;;;7.68;;
801;SDS011;383;48.766;9.270;2022-12-07T01:10:31;13.35;;;7.72;;
801;SDS011;383;48.766;9.270;2022-12-07T01:12:58;15.25;;;7.80;;
801;SDS011;383;48.766;9.270;2022-12-07T01:15:25;15.63;;;8.27;;
801;SDS011;383;48.766;9.270;2022-12-07T01:17:52;20.08;;;8.90;;
801;SDS011;383;48.766;9.270;2022-12-07T01:20:21;18.38;;;9.35;;
801;SDS011;383;48.766;9.270;2022-12-07T01:22:48;14.52;;;7.25;;
801;SDS011;383;48.766;9.270;2022-12-07T01:25:15;16.73;;;8.90;;
801;SDS011;383;48.766;9.270;2022-12-07T01:27:42;21.52;;;8.82;;
801;SDS011;383;48.766;9.270;2022-12-07T01:30:09;15.23;;;8.40;;
801;SDS011;383;48.766;9.270;2022-12-07T01:32:37;15.05;;;8.35;;
801;SDS011;383;48.766;9.270;2022-12-07T01:35:04;18.80;;;7.93;;
801;SDS011;383;48.766;9.270;2022-12-07T01:37:35;17.42;;;8.85;;
801;SDS011;383;48.766;9.270;2022-12-07T01:40:02;16.95;;;8.75;;
801;SDS011;383;48.766;9.270;2022-12-07T01:42:30;17.85;;;8.60;;
801;SDS011;383;48.766;9.270;2022-12-07T01:48:00;17.00;;;8.88;;
801;SDS011;383;48.766;9.270;2022-12-07T01:50:28;14.93;;;8.25;;
801;SDS011;383;48.766;9.270;2022-12-07T01:52:58;20.52;;;8.55;;
801;SDS011;383;48.766;9.270;2022-12-07T01:55:27;17.08;;;9.23;;
801;SDS011;383;48.766;9.270;2022-12-07T01:57:55;13.63;;;8.45;;
801;SDS011;383;48.766;9.270;2022-12-07T02:00:22;21.55;;;8.63;;
801;SDS011;383;48.766;9.270;2022-12-07T02:02:51;26.42;;;8.57;;
801;SDS011;383;48.766;9.270;2022-12-07T02:05:21;18.33;;;8.32;;
801;SDS011;383;48.766;9.270;2022-12-07T02:07:51;19.40;;;9.63;;
801;SDS011;383;48.766;9.270;2022-12-07T02:10:23;18.83;;;8.13;;
801;SDS011;383;48.766;9.270;2022-12-07T02:12:51;17.30;;;8.48;;
801;SDS011;383;48.766;9.270;2022-12-07T02:15:22;21.15;;;9.55;;
801;SDS011;383;48.766;9.270;2022-12-07T02:17:56;15.55;;;8.68;;
801;SDS011;383;48.766;9.270;2022-12-07T02:20:30;21.63;;;8.80;;
801;SDS011;383;48.766;9.270;2022-12-07T02:26:10;23.15;;;8.45;;
801;SDS011;383;48.766;9.270;2022-12-07T02:29:05;16.10;;;8.38;;
801;SDS011;383;48.766;9.270;2022-12-07T02:31:41;18.88;;;7.80;;
801;SDS011;383;48.766;9.270;2022-12-07T02:34:14;19.35;;;9.25;;
801;SDS011;383;48.766;9.270;2022-12-07T02:36:46;18.20;;;8.88;;
801;SDS011;383;48.766;9.270;2022-12-07T02:39:19;24.08;;;8.70;;
801;SDS011;383;48.766;9.270;2022-12-07T02:41:51;21.58;;;10.57;;
801;SDS011;383;48.766;9.270;2022-12-07T02:44:24;24.48;;;9.52;;
801;SDS011;383;48.766;9.270;2022-12-07T02:46:53;16.48;;;8.10;;
801;SDS011;383;48.766;9.270;2022-12-07T02:49:23;18.17;;;8.57;;
801;SDS011;383;48.766;9.270;2022-12-07T02:51:52;14.23;;;7.72;;
801;SDS011;383;48.766;9.270;2022-12-07T02:54:20;15.27;;;7.65;;
801;SDS011;383;48.766;9.270;2022-12-07T02:56:48;17.88;;;7.65;;
801;SDS011;383;48.766;9.270;2022-12-07T02:59:22;18.75;;;9.43;;
801;SDS011;383;48.766;9.270;2022-12-07T03:02:00;19.75;;;8.50;;
801;SDS011;383;48.766;9.270;2022-12-07T03:04:40;13.07;;;7.57;;
801;SDS011;383;48.766;9.270;2022-12-07T03:07:11;16.25;;;9.20;;
801;SDS011;383;48.766;9.270;2022-12-07T03:09:49;16.40;;;8.23;;
801;SDS011;383;48.766;9.270;2022-12-07T03:12:20;17.42;;;8.13;;
801;SDS011;383;48.766;9.270;2022-12-07T03:14:57;18.92;;;8.82;;
801;SDS011;383;48.766;9.270;2022-12-07T03:17:28;16.15;;;9.13;;
801;SDS011;383;48.766;9.270;2022-12-07T03:19:59;16.73;;;8.30;;
801;SDS011;383;48.766;9.270;2022-12-07T03:22:30;19.15;;;8.65;;
801;SDS011;383;48.766;9.270;2022-12-07T03:25:00;20.35;;;7.25;;
801;SDS011;383;48.766;9.270;2022-12-07T03:27:31;15.80;;;7.95;;
801;SDS011;383;48.766;9.270;2022-12-07T03:30:05;19.33;;;8.15;;
801;SDS011;383;48.766;9.270;2022-12-07T03:32:35;16.13;;;7.22;;
801;SDS011;383;48.766;9.270;2022-12-07T03:35:07;16.42;;;7.65;;
801;SDS011;383;48.766;9.270;2022-12-07T03:37:41;22.98;;;8.32;;
801;SDS011;383;48.766;9.270;2022-12-07T03:40:13;18.73;;;8.15;;
801;SDS011;383;48.766;9.270;2022-12-07T03:42:44;17.25;;;8.82;;
801;SDS011;383;48.766;9.270;2022-12-07T03:45:13;18.10;;;9.43;;
801;SDS011;383;48.766;9.270;2022-12-07T03:47:43;16.58;;;8.52;;
801;SDS011;383;48.766;9.270;2022-12-07T03:50:14;15.95;;;8.25;;
801;SDS011;383;48.766;9.270;2022-12-07T03:52:49;14.52;;;7.57;;
801;SDS011;383;48.766;9.270;2022-12-07T03:55:22;16.65;;;7.90;;
801;SDS011;383;48.766;9.270;2022-12-07T03:57:53;18.90;;;9.05;;
801;SDS011;383;48.766;9.270;2022-12-07T04:00:27;17.70;;;8.30;;
801;SDS011;383;48.766;9.270;2022-12-07T04:02:54;17.55;;;7.93;;
801;SDS011;383;48.766;9.270;2022-12-07T04:05:21;19.58;;;8.80;;
801;SDS011;383;48.766;9.270;2022-12-07T04:07:49;16.88;;;8.10;;
801;SDS011;383;48.766;9.270;2022-12-07T04:10:15;18.42;;;8.50;;
801;SDS011;383;48.766;9.270;2022-12-07T04:12:43;21.95;;;9.73;;
801;SDS011;383;48.766;9.270;2022-12-07T04:15:10;22.45;;;9.75;;
801;SDS011;383;48.766;9.270;2022-12-07T04:17:38;17.25;;;8.65;;
801;SDS011;383;48.766;9.270;2022-12-07T04:20:05;19.92;;;7.90;;
801;SDS011;383;48.766;9.270;2022-12-07T04:22:33;13.75;;;7.53;;
801;SDS011;383;48.766;9.270;2022-12-07T04:25:00;19.27;;;8.32;;
801;SDS011;383;48.766;9.270;2022-12-07T04:27:26;16.33;;;8.32;;
801;SDS011;383;48.766;9.270;2022-12-07T04:29:53;14.70;;;8.13;;
801;SDS011;383;48.766;9.270;2022-12-07T04:32:21;17.13;;;8.32;;
801;SDS011;383;48.766;9.270;2022-12-07T04:34:49;18.58;;;9.65;;
801;SDS011;383;48.766;9.270;2022-12-07T04:37:16;16.30;;;7.50;;
801;SDS011;383;48.766;9.270;2022-12-07T04:39:43;16.48;;;8.77;;
801;SDS011;383;48.766;9.270;2022-12-07T04:42:10;15.73;;;8.55;;
801;SDS011;383;48.766;9.270;2022-12-07T04:44:38;19.08;;;8.55;;
801;SDS011;383;48.766;9.270;2022-12-07T04:47:05;18.92;;;8.10;;
801;SDS011;383;48.766;9.270;2022-12-07T04:49:31;14.90;;;7.90;;
801;SDS011;383;48.766;9.270;2022-12-07T04:52:00;19.00;;;9.13;;
801;SDS011;383;48.766;9.270;2022-12-07T04:54:26;17.05;;;8.20;;
801;SDS011;383;48.766;9.270;2022-12-07T04:56:53;19.35;;;8.55;;
801;SDS011;383;48.766;9.270;2022-12-07T04:59:20;21.48;;;9.77;;
801;SDS011;383;48.766;9.270;2022-12-07T05:01:46;20.42;;;9.10;;
801;SDS011;383;48.766;9.270;2022-12-07T05:04:13;18.10;;;8.30;;
801;SDS011;383;48.766;9.270;2022-12-07T05:06:41;18.65;;;8.30;;
801;SDS011;383;48.766;9.270;2022-12-07T05:09:09;15.90;;;7.50;;
801;SDS011;383;48.766;9.270;2022-12-07T05:11:35;13.90;;;8.20;;
801;SDS011;383;48.766;9.270;2022-12-07T05:14:07;17.77;;;8.40;;
801;SDS011;383;48.766;9.270;2022-12-07T05:16:36;22.05;;;8.85;;
801;SDS011;383;48.766;9.270;2022-12-07T05:19:04;17.08;;;7.97;;
801;SDS011;383;48.766;9.270;2022-12-07T05:21:31;16.08;;;8.77;;
801;SDS011;383;48.766;9.270;2022-12-07T05:23:58;33.15;;;10.68;;
801;SDS011;383;48.766;9.270;2022-12-07T05:26:26;28.83;;;9.63;;
801;SDS011;383;48.766;9.270;2022-12-07T05:28:53;22.55;;;9.80;;
801;SDS011;383;48.766;9.270;2022-12-07T05:31:22;20.90;;;10.10;;
801;SDS011;383;48.766;9.270;2022-12-07T05:33:49;27.48;;;9.30;;
801;SDS011;383;48.766;9.270;2022-12-07T05:36:16;18.90;;;9.88;;
801;SDS011;383;48.766;9.270;2022-12-07T05:38:43;23.00;;;10.77;;
801;SDS011;383;48.766;9.270;2022-12-07T05:41:11;18.83;;;9.70;;
801;SDS011;383;48.766;9.270;2022-12-07T05:43:56;21.15;;;9.90;;
801;SDS011;383;48.766;9.270;2022-12-07T05:46:22;21.95;;;9.55;;
801;SDS011;383;48.766;9.270;2022-12-07T05:48:49;33.50;;;10.63;;
801;SDS011;383;48.766;9.270;2022-12-07T05:51:16;26.08;;;10.32;;
801;SDS011;383;48.766;9.270;2022-12-07T05:53:43;19.95;;;10.52;;
801;SDS011;383;48.766;9.270;2022-12-07T05:56:10;20.13;;;9.77;;
801;SDS011;383;48.766;9.270;2022-12-07T05:58:37;25.50;;;10.27;;
801;SDS011;383;48.766;9.270;2022-12-07T06:01:23;22.42;;;10.23;;
801;SDS011;383;48.766;9.270;2022-12-07T06:03:49;19.30;;;9.27;;
801;SDS011;383;48.766;9.270;2022-12-07T06:06:16;28.08;;;10.15;;
801;SDS011;383;48.766;9.270;2022-12-07T06:08:43;22.77;;;10.52;;
801;SDS011;383;48.766;9.270;2022-12-07T06:11:10;25.83;;;10.77;;
801;SDS011;383;48.766;9.270;2022-12-07T06:13:54;26.45;;;11.52;;
801;SDS011;383;48.766;9.270;2022-12-07T06:16:21;27.35;;;11.57;;
801;SDS011;383;48.766;9.270;2022-12-07T06:18:49;21.25;;;9.57;;
801;SDS011;383;48.766;9.270;2022-12-07T06:21:15;20.13;;;9.65;;
801;SDS011;383;48.766;9.270;2022-12-07T06:23:42;20.80;;;10.70;;
801;SDS011;383;48.766;9.270;2022-12-07T06:26:09;22.83;;;8.65;;
801;SDS011;383;48.766;9.270;2022-12-07T06:28:35;23.83;;;11.50;;
801;SDS011;383;48.766;9.270;2022-12-07T06:31:02;24.60;;;10.63;;
801;SDS011;383;48.766;9.270;2022-12-07T06:33:31;24.40;;;9.82;;
801;SDS011;383;48.766;9.270;2022-12-07T06:35:57;21.95;;;10.75;;
801;SDS011;383;48.766;9.270;2022-12-07T06:38:24;27.45;;;12.57;;
801;SDS011;383;48.766;9.270;2022-12-07T06:40:51;28.90;;;11.68;;
801;SDS011;383;48.766;9.270;2022-12-07T06:43:18;17.45;;;9.20;;
801;SDS011;383;48.766;9.270;2022-12-07T06:45:44;21.38;;;10.20;;
801;SDS011;383;48.766;9.270;2022-12-07T06:48:11;20.95;;;10.52;;
801;SDS011;383;48.766;9.270;2022-12-07T06:50:39;25.52;;;10.25;;
801;SDS011;383;48.766;9.270;2022-12-07T06:53:06;21.20;;;10.55;;
801;SDS011;383;48.766;9.270;2022-12-07T06:55:33;25.27;;;11.93;;
801;SDS011;383;48.766;9.270;2022-12-07T06:58:00;19.70;;;10.27;;
801;SDS011;383;48.766;9.270;2022-12-07T07:00:27;22.95;;;10.07;;
801;SDS011;383;48.766;9.270;2022-12-07T07:02:54;22.88;;;9.88;;
801;SDS011;383;48.766;9.270;2022-12-07T07:05:21;18.05;;;8.52;;
801;SDS011;383;48.766;9.270;2022-12-07T07:07:49;32.88;;;11.02;;
801;SDS011;383;48.766;9.270;2022-12-07T07:10:16;18.75;;;9.20;;
801;SDS011;383;48.766;9.270;2022-12-07T07:12:43;19.55;;;9.18;;
801;SDS011;383;48.766;9.270;2022-12-07T07:15:10;19.33;;;9.98;;
801;SDS011;383;48.766;9.270;2022-12-07T07:17:37;20.17;;;9.60;;
801;SDS011;383;48.766;9.270;2022-12-07T07:20:04;22.17;;;9.15;;
801;SDS011;383;48.766;9.270;2022-12-07T07:22:32;23.70;;;10.45;;
801;SDS011;383;48.766;9.270;2022-12-07T07:25:00;21.98;;;9.70;;
801;SDS011;383;48.766;9.270;2022-12-07T07:27:27;21.73;;;9.50;;
801;SDS011;383;48.766;9.270;2022-12-07T07:29:53;16.58;;;8.43;;
801;SDS011;383;48.766;9.270;2022-12-07T07:32:20;19.63;;;8.50;;
801;SDS011;383;48.766;9.270;2022-12-07T07:34:47;19.63;;;9.90;;
801;SDS011;383;48.766;9.270;2022-12-07T07:37:14;20.60;;;8.45;;
801;SDS011;383;48.766;9.270;2022-12-07T07:39:41;20.77;;;8.80;;
801;SDS011;383;48.766;9.270;2022-12-07T07:42:09;22.77;;;9.63;;
801;SDS011;383;48.766;9.270;2022-12-07T07:44:35;19.20;;;8.60;;
801;SDS011;383;48.766;9.270;2022-12-07T07:47:02;17.42;;;8.63;;
801;SDS011;383;48.766;9.270;2022-12-07T07:49:29;19.88;;;10.35;;
801;SDS011;383;48.766;9.270;2022-12-07T07:51:56;31.17;;;10.02;;
801;SDS011;383;48.766;9.270;2022-12-07T07:54:23;20.70;;;10.32;;
801;SDS011;383;48.766;9.270;2022-12-07T07:56:49;26.00;;;11.90;;
801;SDS011;383;48.766;9.270;2022-12-07T07:59:17;21.70;;;11.00;;
801;SDS011;383;48.766;9.270;2022-12-07T08:01:44;20.35;;;9.80;;
801;SDS011;383;48.766;9.270;2022-12-07T08:04:11;22.35;;;9.90;;
801;SDS011;383;48.766;9.270;2022-12-07T08:06:37;23.95;;;10.02;;
801;SDS011;383;48.766;9.270;2022-12-07T08:09:04;40.90;;;17.17;;
801;SDS011;383;48.766;9.270;2022-12-07T08:11:31;49.72;;;17.02;;
801;SDS011;383;48.766;9.270;2022-12-07T08:13:58;33.67;;;15.82;;
801;SDS011;383;48.766;9.270;2022-12-07T08:16:26;23.77;;;12.50;;
801;SDS011;383;48.766;9.270;2022-12-07T08:18:53;24.23;;;11.25;;
801;SDS011;383;48.766;9.270;2022-12-07T08:21:19;21.23;;;11.65;;
801;SDS011;383;48.766;9.270;2022-12-07T08:23:46;28.40;;;15.38;;
801;SDS011;383;48.766;9.270;2022-12-07T08:26:14;22.45;;;13.07;;
801;SDS011;383;48.766;9.270;2022-12-07T08:28:42;17.33;;;9.38;;
801;SDS011;383;48.766;9.270;2022-12-07T08:31:11;13.55;;;8.57;;
801;SDS011;383;48.766;9.270;2022-12-07T08:33:40;20.80;;;8.23;;
801;SDS011;383;48.766;9.270;2022-12-07T08:36:08;18.35;;;8.48;;
801;SDS011;383;48.766;9.270;2022-12-07T08:38:37;16.25;;;7.95;;
801;SDS011;383;48.766;9.270;2022-12-07T08:41:06;19.23;;;8.10;;
801;SDS011;383;48.766;9.270;2022-12-07T08:43:33;17.80;;;8.93;;
801;SDS011;383;48.766;9.270;2022-12-07T08:46:04;17.10;;;8.30;;
801;SDS011;383;48.766;9.270;2022-12-07T08:48:35;22.02;;;8.95;;
801;SDS011;383;48.766;9.270;2022-12-07T08:51:06;20.60;;;8.63;;
801;SDS011;383;48.766;9.270;2022-12-07T08:53:33;15.85;;;7.57;;
801;SDS011;383;48.766;9.270;2022-12-07T08:56:03;16.55;;;7.70;;
801;SDS011;383;48.766;9.270;2022-12-07T08:58:31;14.63;;;7.22;;
801;SDS011;383;48.766;9.270;2022-12-07T09:00:58;13.70;;;6.68;;
801;SDS011;383;48.766;9.270;2022-12-07T09:03:25;15.40;;;8.18;;
801;SDS011;383;48.766;9.270;2022-12-07T09:05:52;17.30;;;8.00;;
801;SDS011;383;48.766;9.270;2022-12-07T09:08:20;20.15;;;9.48;;
801;SDS011;383;48.766;9.270;2022-12-07T09:10:49;14.98;;;7.35;;
801;SDS011;383;48.766;9.270;2022-12-07T09:13:15;14.43;;;7.45;;
801;SDS011;383;48.766;9.270;2022-12-07T09:15:42;20.65;;;9.63;;
801;SDS011;383;48.766;9.270;2022-12-07T09:18:09;9.70;;;6.13;;
801;SDS011;383;48.766;9.270;2022-12-07T09:20:36;16.13;;;7.80;;
801;SDS011;383;48.766;9.270;2022-12-07T09:23:03;16.23;;;7.72;;
801;SDS011;383;48.766;9.270;2022-12-07T09:25:33;13.90;;;6.95;;
801;SDS011;383;48.766;9.270;2022-12-07T09:27:59;16.20;;;8.05;;
801;SDS011;383;48.766;9.270;2022-12-07T09:30:27;13.77;;;8.25;;
801;SDS011;383;48.766;9.270;2022-12-07T09:32:54;13.80;;;7.30;;
801;SDS011;383;48.766;9.270;2022-12-07T09:35:22;13.07;;;6.90;;
801;SDS011;383;48.766;9.270;2022-12-07T09:37:51;19.20;;;8.10;;
801;SDS011;383;48.766;9.270;2022-12-07T09:40:19;17.05;;;7.40;;
801;SDS011;383;48.766;9.270;2022-12-07T09:42:49;19.83;;;6.72;;
801;SDS011;383;48.766;9.270;2022-12-07T09:45:21;19.77;;;7.38;;
801;SDS011;383;48.766;9.270;2022-12-07T09:47:49;13.23;;;7.60;;
801;SDS011;383;48.766;9.270;2022-12-07T09:50:16;13.30;;;7.43;;
801;SDS011;383;48.766;9.270;2022-12-07T09:52:47;15.65;;;7.38;;
801;SDS011;383;48.766;9.270;2022-12-07T09:55:15;17.83;;;8.10;;
801;SDS011;383;48.766;9.270;2022-12-07T09:57:52;10.90;;;6.65;;
801;SDS011;383;48.766;9.270;2022-12-07T10:00:21;13.10;;;6.05;;
801;SDS011;383;48.766;9.270;2022-12-07T10:02:49;13.00;;;6.47;;
801;SDS011;383;48.766;9.270;2022-12-07T10:05:20;9.70;;;5.40;;
801;SDS011;383;48.766;9.270;2022-12-07T10:07:52;12.32;;;6.68;;
801;SDS011;383;48.766;9.270;2022-12-07T10:10:20;13.50;;;6.90;;
801;SDS011;383;48.766;9.270;2022-12-07T10:12:56;12.77;;;6.40;;
801;SDS011;383;48.766;9.270;2022-12-07T10:15:42;12.20;;;5.50;;
801;SDS011;383;48.766;9.270;2022-12-07T10:18:18;13.07;;;6.07;;
801;SDS011;383;48.766;9.270;2022-12-07T10:21:08;12.90;;;5.78;;
801;SDS011;383;48.766;9.270;2022-12-07T10:23:38;12.25;;;5.93;;
801;SDS011;383;48.766;9.270;2022-12-07T10:29:00;12.95;;;7.15;;
801;SDS011;383;48.766;9.270;2022-12-07T10:31:38;11.05;;;5.97;;
801;SDS011;383;48.766;9.270;2022-12-07T10:34:12;12.52;;;6.80;;
801;SDS011;383;48.766;9.270;2022-12-07T10:36:47;10.10;;;6.45;;
801;SDS011;383;48.766;9.270;2022-12-07T10:39:15;10.80;;;5.63;;
801;SDS011;383;48.766;9.270;2022-12-07T10:41:52;9.95;;;5.40;;
801;SDS011;383;48.766;9.270;2022-12-07T10:44:23;7.03;;;3.58;;
801;SDS011;383;48.766;9.270;2022-12-07T10:49:53;7.47;;;3.60;;
801;SDS011;383;48.766;9.270;2022-12-07T10:55:42;4.65;;;2.97;;
801;SDS011;383;48.766;9.270;2022-12-07T10:58:27;7.00;;;3.70;;
801;SDS011;383;48.766;9.270;2022-12-07T11:01:02;5.40;;;3.55;;
801;SDS011;383;48.766;9.270;2022-12-07T11:03:37;5.97;;;3.55;;
801;SDS011;383;48.766;9.270;2022-12-07T11:06:16;4.97;;;3.03;;
801;SDS011;383;48.766;9.270;2022-12-07T11:08:59;5.63;;;3.75;;
801;SDS011;383;48.766;9.270;2022-12-07T11:11:33;8.23;;;4.35;;
801;SDS011;383;48.766;9.270;2022-12-07T11:14:05;5.93;;;4.10;;
801;SDS011;383;48.766;9.270;2022-12-07T11:16:51;7.80;;;4.20;;
801;SDS011;383;48.766;9.270;2022-12-07T11:19:40;6.43;;;3.53;;
801;SDS011;383;48.766;9.270;2022-12-07T11:22:17;5.55;;;3.53;;
801;SDS011;383;48.766;9.270;2022-12-07T11:24:50;8.30;;;4.00;;
801;SDS011;383;48.766;9.270;2022-12-07T11:27:29;4.57;;;3.40;;
801;SDS011;383;48.766;9.270;2022-12-07T11:30:12;4.90;;;3.58;;
801;SDS011;383;48.766;9.270;2022-12-07T11:33:07;7.97;;;3.92;;
801;SDS011;383;48.766;9.270;2022-12-07T11:35:46;8.55;;;3.42;;
801;SDS011;383;48.766;9.270;2022-12-07T11:38:21;7.25;;;3.50;;
801;SDS011;383;48.766;9.270;2022-12-07T11:40:53;4.32;;;3.25;;
801;SDS011;383;48.766;9.270;2022-12-07T11:43:37;8.68;;;4.32;;
801;SDS011;383;48.766;9.270;2022-12-07T11:46:16;7.30;;;3.92;;
801;SDS011;383;48.766;9.270;2022-12-07T11:48:46;6.40;;;3.80;;
801;SDS011;383;48.766;9.270;2022-12-07T11:51:17;5.03;;;3.30;;
801;SDS011;383;48.766;9.270;2022-12-07T11:53:48;7.72;;;4.00;;
801;SDS011;383;48.766;9.270;2022-12-07T11:56:20;5.10;;;3.40;;
801;SDS011;383;48.766;9.270;2022-12-07T11:58:49;8.00;;;4.78;;
801;SDS011;383;48.766;9.270;2022-12-07T12:01:29;9.75;;;4.30;;
801;SDS011;383;48.766;9.270;2022-12-07T12:04:16;7.63;;;3.50;;
801;SDS011;383;48.766;9.270;2022-12-07T12:06:53;7.40;;;3.38;;
801;SDS011;383;48.766;9.270;2022-12-07T12:09:21;4.55;;;2.90;;
801;SDS011;383;48.766;9.270;2022-12-07T12:11:56;12.10;;;5.70;;
801;SDS011;383;48.766;9.270;2022-12-07T12:14:44;5.57;;;3.25;;
801;SDS011;383;48.766;9.270;2022-12-07T12:17:35;8.48;;;3.75;;
801;SDS011;383;48.766;9.270;2022-12-07T12:20:22;11.80;;;6.03;;
801;SDS011;383;48.766;9.270;2022-12-07T12:22:53;4.70;;;3.30;;
801;SDS011;383;48.766;9.270;2022-12-07T12:25:25;7.13;;;4.65;;
801;SDS011;383;48.766;9.270;2022-12-07T12:27:55;8.35;;;4.90;;
801;SDS011;383;48.766;9.270;2022-12-07T12:30:26;8.10;;;4.45;;
801;SDS011;383;48.766;9.270;2022-12-07T12:33:01;7.60;;;4.65;;
801;SDS011;383;48.766;9.270;2022-12-07T12:35:34;7.93;;;4.85;;
801;SDS011;383;48.766;9.270;2022-12-07T12:40:58;9.50;;;5.75;;
801;SDS011;383;48.766;9.270;2022-12-07T12:55:21;11.68;;;6.30;;
801;SDS011;383;48.766;9.270;2022-12-07T12:58:27;13.73;;;5.72;;
801;SDS011;383;48.766;9.270;2022-12-07T13:07:02;12.27;;;5.55;;
801;SDS011;383;48.766;9.270;2022-12-07T13:09:32;7.45;;;5.32;;
801;SDS011;383;48.766;9.270;2022-12-07T13:12:02;10.57;;;5.43;;
801;SDS011;383;48.766;9.270;2022-12-07T13:14:51;9.23;;;5.50;;
801;SDS011;383;48.766;9.270;2022-12-07T13:20:47;9.15;;;4.70;;
801;SDS011;383;48.766;9.270;2022-12-07T13:23:16;10.07;;;5.75;;
801;SDS011;383;48.766;9.270;2022-12-07T13:26:00;11.20;;;6.22;;
801;SDS011;383;48.766;9.270;2022-12-07T13:28:39;15.57;;;6.05;;
801;SDS011;383;48.766;9.270;2022-12-07T13:31:19;10.07;;;5.55;;
801;SDS011;383;48.766;9.270;2022-12-07T13:36:55;11.95;;;6.13;;
801;SDS011;383;48.766;9.270;2022-12-07T13:39:23;14.23;;;6.55;;
801;SDS011;383;48.766;9.270;2022-12-07T13:41:53;14.77;;;7.57;;
801;SDS011;383;48.766;9.270;2022-12-07T13:44:22;12.60;;;6.78;;
801;SDS011;383;48.766;9.270;2022-12-07T13:46:51;17.90;;;6.28;;
801;SDS011;383;48.766;9.270;2022-12-07T13:49:24;9.38;;;5.45;;
801;SDS011;383;48.766;9.270;2022-12-07T13:51:52;12.52;;;5.75;;
801;SDS011;383;48.766;9.270;2022-12-07T13:54:20;10.55;;;6.97;;
801;SDS011;383;48.766;9.270;2022-12-07T13:56:48;9.85;;;6.45;;
801;SDS011;383;48.766;9.270;2022-12-07T13:59:18;9.73;;;6.35;;
801;SDS011;383;48.766;9.270;2022-12-07T14:01:47;14.90;;;5.45;;
801;SDS011;383;48.766;9.270;2022-12-07T14:04:19;9.27;;;5.28;;
801;SDS011;383;48.766;9.270;2022-12-07T14:06:56;13.90;;;5.90;;
801;SDS011;383;48.766;9.270;2022-12-07T14:09:24;17.75;;;5.72;;
801;SDS011;383;48.766;9.270;2022-12-07T14:11:53;12.05;;;5.50;;
801;SDS011;383;48.766;9.270;2022-12-07T14:14:23;11.25;;;5.78;;
801;SDS011;383;48.766;9.270;2022-12-07T14:16:57;17.40;;;6.38;;
801;SDS011;383;48.766;9.270;2022-12-07T14:19:42;24.08;;;8.98;;
801;SDS011;383;48.766;9.270;2022-12-07T14:22:22;19.35;;;7.72;;
801;SDS011;383;48.766;9.270;2022-12-07T14:27:49;12.40;;;5.40;;
801;SDS011;383;48.766;9.270;2022-12-07T14:30:22;31.23;;;10.55;;
801;SDS011;383;48.766;9.270;2022-12-07T14:32:52;15.02;;;6.80;;
801;SDS011;383;48.766;9.270;2022-12-07T14:35:20;17.85;;;6.75;;
801;SDS011;383;48.766;9.270;2022-12-07T14:37:48;17.17;;;7.28;;
801;SDS011;383;48.766;9.270;2022-12-07T14:40:16;9.43;;;5.55;;
801;SDS011;383;48.766;9.270;2022-12-07T14:42:45;15.82;;;7.82;;
801;SDS011;383;48.766;9.270;2022-12-07T14:45:13;15.65;;;6.68;;
801;SDS011;383;48.766;9.270;2022-12-07T14:47:43;14.40;;;7.82;;
801;SDS011;383;48.766;9.270;2022-12-07T14:50:11;9.88;;;5.78;;
801;SDS011;383;48.766;9.270;2022-12-07T14:52:39;12.10;;;6.20;;
801;SDS011;383;48.766;9.270;2022-12-07T14:55:12;12.98;;;7.00;;
801;SDS011;383;48.766;9.270;2022-12-07T14:57:55;19.92;;;7.65;;
801;SDS011;383;48.766;9.270;2022-12-07T15:00:24;15.70;;;7.30;;
801;SDS011;383;48.766;9.270;2022-12-07T15:02:53;10.32;;;5.55;;
801;SDS011;383;48.766;9.270;2022-12-07T15:05:20;14.55;;;5.32;;
801;SDS011;383;48.766;9.270;2022-12-07T15:07:48;16.67;;;8.52;;
801;SDS011;383;48.766;9.270;2022-12-07T15:10:16;24.58;;;9.60;;
801;SDS011;383;48.766;9.270;2022-12-07T15:12:46;10.90;;;6.90;;
801;SDS011;383;48.766;9.270;2022-12-07T15:15:13;18.92;;;7.05;;
801;SDS011;383;48.766;9.270;2022-12-07T15:17:40;16.10;;;7.22;;
801;SDS011;383;48.766;9.270;2022-12-07T15:20:09;14.23;;;6.07;;
801;SDS011;383;48.766;9.270;2022-12-07T15:22:38;15.77;;;7.07;;
801;SDS011;383;48.766;9.270;2022-12-07T15:25:05;11.55;;;6.90;;
801;SDS011;383;48.766;9.270;2022-12-07T15:27:33;13.73;;;6.95;;
801;SDS011;383;48.766;9.270;2022-12-07T15:30:00;12.07;;;6.57;;
801;SDS011;383;48.766;9.270;2022-12-07T15:32:26;11.15;;;6.20;;
801;SDS011;383;48.766;9.270;2022-12-07T15:34:53;13.93;;;6.00;;
801;SDS011;383;48.766;9.270;2022-12-07T15:37:21;8.10;;;5.53;;
801;SDS011;383;48.766;9.270;2022-12-07T15:39:48;15.00;;;6.72;;
801;SDS011;383;48.766;9.270;2022-12-07T15:42:15;13.63;;;7.45;;
801;SDS011;383;48.766;9.270;2022-12-07T15:44:41;10.02;;;5.90;;
801;SDS011;383;48.766;9.270;2022-12-07T15:47:25;13.50;;;6.30;;
801;SDS011;383;48.766;9.270;2022-12-07T15:49:52;9.27;;;5.22;;
801;SDS011;383;48.766;9.270;2022-12-07T15:52:22;15.27;;;7.70;;
801;SDS011;383;48.766;9.270;2022-12-07T15:54:49;13.82;;;7.30;;
801;SDS011;383;48.766;9.270;2022-12-07T15:57:16;13.60;;;6.82;;
801;SDS011;383;48.766;9.270;2022-12-07T15:59:42;11.82;;;6.80;;
801;SDS011;383;48.766;9.270;2022-12-07T16:02:09;14.82;;;7.22;;
801;SDS011;383;48.766;9.270;2022-12-07T16:04:36;11.70;;;5.90;;
801;SDS011;383;48.766;9.270;2022-12-07T16:07:03;17.13;;;7.28;;
801;SDS011;383;48.766;9.270;2022-12-07T16:09:32;14.30;;;7.63;;
801;SDS011;383;48.766;9.270;2022-12-07T16:12:02;22.08;;;7.70;;
801;SDS011;383;48.766;9.270;2022-12-07T16:14:29;13.70;;;7.63;;
801;SDS011;383;48.766;9.270;2022-12-07T16:16:57;19.45;;;8.25;;
801;SDS011;383;48.766;9.270;2022-12-07T16:19:24;15.63;;;8.45;;
801;SDS011;383;48.766;9.270;2022-12-07T16:21:50;25.00;;;8.80;;
801;SDS011;383;48.766;9.270;2022-12-07T16:24:17;76.05;;;33.55;;
801;SDS011;383;48.766;9.270;2022-12-07T16:26:45;68.47;;;27.77;;
801;SDS011;383;48.766;9.270;2022-12-07T16:29:12;18.40;;;9.57;;
801;SDS011;383;48.766;9.270;2022-12-07T16:31:43;14.43;;;7.25;;
801;SDS011;383;48.766;9.270;2022-12-07T16:34:10;16.15;;;8.50;;